Time;durP1;ratioP1;P1;durP2;ratioP2;P2;SDS_P1;SDS_P2;PMS_P1;PMS_P2;Temp;Humidity;BMP_temperature;BMP_pressure;BME280_temperature;BME280_humidity;BME280_pressure;Samples;Min_cycle;Max_cycle;Signal;HPM_P1;HPM_P2
2023/10/27 00:02:22;;;;;;;25.85;24.48;;;;;;;;;;5060483;28;20079;-67
2023/10/27 00:04:47;;;;;;;28.33;26.73;;;;;;;;;;5066018;28;20286;-67
2023/10/27 00:07:12;;;;;;;25.73;24.30;;;;;;;;;;5061472;28;20450;-67
2023/10/27 00:09:39;;;;;;;30.02;28.38;;;;;;;;;;5064564;28;20118;-67
2023/10/27 00:12:05;;;;;;;28.58;26.88;;;;;;;;;;5067750;28;20021;-67
2023/10/27 00:14:30;;;;;;;28.02;26.55;;;;;;;;;;5064497;28;20059;-67
2023/10/27 00:16:57;;;;;;;30.55;28.73;;;;;;;;;;5065683;28;20496;-67
2023/10/27 00:19:22;;;;;;;33.72;31.92;;;;;;;;;;5065688;28;20032;-67
2023/10/27 00:21:48;;;;;;;33.10;31.30;;;;;;;;;;5067981;28;20043;-67
2023/10/27 00:24:13;;;;;;;31.38;29.45;;;;;;;;;;5065104;28;20028;-67
2023/10/27 00:26:38;;;;;;;30.13;28.52;;;;;;;;;;5066674;28;20339;-67
2023/10/27 00:29:04;;;;;;;34.55;32.75;;;;;;;;;;5068430;28;20164;-67
2023/10/27 00:31:29;;;;;;;35.13;33.22;;;;;;;;;;5062247;28;20154;-67
2023/10/27 00:33:55;;;;;;;37.60;35.08;;;;;;;;;;5065851;28;20099;-67
2023/10/27 00:36:20;;;;;;;38.72;36.65;;;;;;;;;;5065047;28;20040;-67
2023/10/27 00:38:48;;;;;;;37.28;35.25;;;;;;;;;;5063663;28;20468;-67
2023/10/27 00:41:13;;;;;;;40.28;38.17;;;;;;;;;;5064738;28;20116;-67
2023/10/27 00:43:39;;;;;;;37.85;35.92;;;;;;;;;;5065308;28;20124;-67
2023/10/27 00:46:04;;;;;;;40.42;38.33;;;;;;;;;;5065430;28;20409;-67
2023/10/27 00:48:30;;;;;;;41.10;39.00;;;;;;;;;;5063630;28;20090;-67
2023/10/27 00:50:56;;;;;;;39.35;37.30;;;;;;;;;;5065578;28;20028;-67
2023/10/27 00:53:21;;;;;;;43.85;40.95;;;;;;;;;;5064188;28;20552;-67
2023/10/27 00:55:48;;;;;;;41.17;39.08;;;;;;;;;;5065411;28;20052;-67
2023/10/27 00:58:14;;;;;;;40.17;37.97;;;;;;;;;;5063630;28;20048;-67
2023/10/27 01:00:40;;;;;;;42.65;40.38;;;;;;;;;;5062842;28;20040;-67
2023/10/27 01:03:05;;;;;;;41.53;39.35;;;;;;;;;;5081771;28;20029;-67
2023/10/27 01:05:31;;;;;;;40.03;37.72;;;;;;;;;;5064453;28;20075;-67
2023/10/27 01:07:57;;;;;;;40.53;38.42;;;;;;;;;;5066872;28;20032;-67
2023/10/27 01:10:22;;;;;;;36.97;35.05;;;;;;;;;;5066504;28;20047;-67
2023/10/27 01:12:50;;;;;;;35.75;33.90;;;;;;;;;;5064649;28;20040;-67
2023/10/27 01:15:16;;;;;;;35.60;33.70;;;;;;;;;;5065046;28;20045;-67
2023/10/27 01:17:41;;;;;;;30.92;29.33;;;;;;;;;;5063070;28;20036;-67
2023/10/27 01:20:07;;;;;;;33.63;31.33;;;;;;;;;;5067216;28;20040;-67
2023/10/27 01:22:39;;;;;;;32.47;30.52;;;;;;;;;;5063653;28;20032;-67
2023/10/27 01:25:06;;;;;;;30.20;28.60;;;;;;;;;;5066003;28;20040;-67
2023/10/27 01:27:33;;;;;;;30.35;28.55;;;;;;;;;;5063899;28;20440;-67
2023/10/27 01:29:58;;;;;;;29.88;28.27;;;;;;;;;;5064359;28;20373;-67
2023/10/27 01:32:24;;;;;;;32.33;30.63;;;;;;;;;;5064094;28;20029;-67
2023/10/27 01:34:49;;;;;;;34.20;32.10;;;;;;;;;;5064819;28;20032;-67
2023/10/27 01:37:14;;;;;;;28.83;27.27;;;;;;;;;;5063715;28;20029;-67
2023/10/27 01:39:40;;;;;;;31.83;30.20;;;;;;;;;;5061805;28;20098;-67
2023/10/27 01:42:05;;;;;;;29.83;28.30;;;;;;;;;;5066689;28;20044;-67
2023/10/27 01:44:31;;;;;;;31.60;29.90;;;;;;;;;;5064885;28;20032;-67
2023/10/27 01:46:56;;;;;;;31.13;29.40;;;;;;;;;;5063255;28;20484;-67
2023/10/27 01:49:22;;;;;;;31.10;29.30;;;;;;;;;;5064705;28;20071;-67
2023/10/27 01:51:47;;;;;;;31.95;30.25;;;;;;;;;;5067152;28;20029;-67
2023/10/27 01:54:12;;;;;;;32.38;30.52;;;;;;;;;;5068078;28;20185;-67
2023/10/27 01:56:39;;;;;;;31.40;29.67;;;;;;;;;;5063333;28;20062;-67
2023/10/27 01:59:04;;;;;;;33.95;32.08;;;;;;;;;;5067786;28;20032;-67
2023/10/27 02:01:29;;;;;;;30.85;29.23;;;;;;;;;;5064353;28;20113;-67
2023/10/27 02:03:55;;;;;;;30.80;29.10;;;;;;;;;;5067129;28;20048;-67
2023/10/27 02:06:25;;;;;;;32.75;30.85;;;;;;;;;;5066104;28;20034;-67
2023/10/27 02:08:52;;;;;;;31.02;29.42;;;;;;;;;;5064542;28;20106;-67
2023/10/27 02:11:18;;;;;;;32.15;30.35;;;;;;;;;;5067994;28;20064;-67
2023/10/27 02:13:43;;;;;;;30.55;28.95;;;;;;;;;;5065483;28;20440;-67
2023/10/27 02:16:09;;;;;;;31.50;29.35;;;;;;;;;;5065197;28;20568;-67
2023/10/27 02:18:34;;;;;;;30.52;28.92;;;;;;;;;;5067786;28;20566;-67
2023/10/27 02:20:59;;;;;;;30.23;28.65;;;;;;;;;;5065605;28;20081;-67
2023/10/27 02:23:26;;;;;;;31.27;29.48;;;;;;;;;;5062736;28;20427;-67
2023/10/27 02:25:52;;;;;;;29.35;27.75;;;;;;;;;;5066081;28;20498;-67
2023/10/27 02:28:18;;;;;;;28.60;27.00;;;;;;;;;;5063436;28;20453;-67
2023/10/27 02:30:43;;;;;;;29.23;27.33;;;;;;;;;;5062215;28;20091;-67
2023/10/27 02:33:09;;;;;;;29.83;28.23;;;;;;;;;;5063272;28;20033;-67
2023/10/27 02:35:34;;;;;;;32.00;30.20;;;;;;;;;;5066909;28;20374;-67
2023/10/27 02:37:59;;;;;;;31.60;29.95;;;;;;;;;;5063785;28;20340;-67
2023/10/27 02:40:25;;;;;;;30.95;29.33;;;;;;;;;;5062709;28;20048;-67
2023/10/27 02:42:50;;;;;;;29.40;27.88;;;;;;;;;;5062548;28;20410;-67
2023/10/27 02:45:15;;;;;;;30.58;28.98;;;;;;;;;;5066691;28;20036;-67
2023/10/27 02:47:41;;;;;;;30.10;28.50;;;;;;;;;;5060494;28;20024;-67
2023/10/27 02:50:07;;;;;;;29.08;27.58;;;;;;;;;;5065664;28;20035;-67
2023/10/27 02:52:32;;;;;;;28.67;27.08;;;;;;;;;;5066494;28;20552;-67
2023/10/27 02:54:57;;;;;;;26.65;25.25;;;;;;;;;;5062062;28;20052;-67
2023/10/27 02:57:23;;;;;;;31.38;29.25;;;;;;;;;;5066274;28;20096;-67
2023/10/27 02:59:48;;;;;;;29.02;27.33;;;;;;;;;;5065465;28;20105;-67
2023/10/27 03:02:14;;;;;;;27.15;25.65;;;;;;;;;;5065058;28;20063;-67
2023/10/27 03:04:39;;;;;;;26.88;25.05;;;;;;;;;;5063302;28;20040;-67
2023/10/27 03:07:05;;;;;;;27.52;26.08;;;;;;;;;;5063379;28;20028;-67
2023/10/27 03:09:30;;;;;;;28.17;26.67;;;;;;;;;;5063304;28;20037;-67
2023/10/27 03:11:55;;;;;;;27.85;26.35;;;;;;;;;;5063296;28;20063;-67
2023/10/27 03:14:21;;;;;;;29.65;28.00;;;;;;;;;;5061196;28;20131;-66
2023/10/27 03:16:46;;;;;;;32.53;29.40;;;;;;;;;;5063885;28;20070;-67
2023/10/27 03:19:11;;;;;;;28.33;26.83;;;;;;;;;;5064985;28;20097;-67
2023/10/27 03:21:37;;;;;;;29.08;27.48;;;;;;;;;;5064602;28;20111;-67
2023/10/27 03:24:04;;;;;;;29.42;27.70;;;;;;;;;;5063660;28;20062;-67
2023/10/27 03:26:29;;;;;;;30.85;29.08;;;;;;;;;;5064867;28;20485;-67
2023/10/27 03:28:54;;;;;;;27.65;26.17;;;;;;;;;;5065788;28;20063;-67
2023/10/27 03:31:20;;;;;;;28.70;27.10;;;;;;;;;;5062129;28;20040;-67
2023/10/27 03:33:45;;;;;;;30.30;28.60;;;;;;;;;;5062986;28;20085;-67
2023/10/27 03:36:11;;;;;;;28.42;26.92;;;;;;;;;;5064793;28;20335;-67
2023/10/27 03:38:36;;;;;;;29.38;27.67;;;;;;;;;;5060110;28;20045;-67
2023/10/27 03:41:01;;;;;;;29.40;27.20;;;;;;;;;;5062081;28;20666;-67
2023/10/27 03:43:28;;;;;;;31.73;29.70;;;;;;;;;;5066036;28;20516;-67
2023/10/27 03:45:53;;;;;;;33.05;30.75;;;;;;;;;;5068045;28;20032;-67
2023/10/27 03:48:19;;;;;;;33.08;31.38;;;;;;;;;;5071670;28;20096;-67
2023/10/27 03:50:44;;;;;;;33.20;31.40;;;;;;;;;;5067175;28;20351;-67
2023/10/27 03:53:09;;;;;;;33.53;31.73;;;;;;;;;;5069763;28;20374;-67
2023/10/27 03:55:35;;;;;;;33.42;31.70;;;;;;;;;;5067373;28;20115;-67
2023/10/27 03:58:14;;;;;;;31.60;29.90;;;;;;;;;;5066747;28;20420;-67
2023/10/27 04:00:39;;;;;;;30.33;28.73;;;;;;;;;;5064118;28;20021;-67
2023/10/27 04:03:04;;;;;;;29.20;27.60;;;;;;;;;;5066862;28;20036;-67
2023/10/27 04:05:30;;;;;;;30.33;28.30;;;;;;;;;;5066812;28;20020;-67
2023/10/27 04:07:55;;;;;;;27.83;26.33;;;;;;;;;;5066606;28;20036;-67
2023/10/27 04:10:21;;;;;;;29.05;27.15;;;;;;;;;;5068007;28;20039;-66
2023/10/27 04:12:47;;;;;;;32.72;30.50;;;;;;;;;;5065041;28;20038;-68
2023/10/27 04:15:12;;;;;;;32.60;30.83;;;;;;;;;;5051592;28;20021;-70
2023/10/27 04:17:38;;;;;;;40.63;38.42;;;;;;;;;;5066588;28;20485;-67
2023/10/27 04:20:04;;;;;;;38.60;36.50;;;;;;;;;;5070762;28;20037;-68
2023/10/27 04:22:30;;;;;;;42.50;40.20;;;;;;;;;;5066325;28;20635;-67
2023/10/27 04:24:55;;;;;;;44.63;42.33;;;;;;;;;;5073859;28;20047;-68
2023/10/27 04:27:20;;;;;;;48.65;45.85;;;;;;;;;;5068197;28;20120;-69
2023/10/27 04:29:46;;;;;;;56.03;53.17;;;;;;;;;;5066923;28;20040;-69
2023/10/27 04:32:15;;;;;;;58.83;55.83;;;;;;;;;;5066311;28;20021;-69
2023/10/27 04:34:42;;;;;;;60.40;57.35;;;;;;;;;;5063519;28;20037;-68
2023/10/27 04:37:07;;;;;;;67.43;63.97;;;;;;;;;;5068590;28;20057;-68
2023/10/27 04:39:33;;;;;;;73.75;70.07;;;;;;;;;;5067212;28;20132;-68
2023/10/27 04:41:58;;;;;;;73.75;69.97;;;;;;;;;;5065611;28;20040;-68
2023/10/27 04:44:25;;;;;;;68.03;64.57;;;;;;;;;;5066261;28;20444;-68
2023/10/27 04:46:51;;;;;;;63.08;59.85;;;;;;;;;;5065639;28;20036;-67
2023/10/27 04:49:17;;;;;;;58.28;55.33;;;;;;;;;;5064477;28;20478;-68
2023/10/27 04:51:42;;;;;;;59.10;56.08;;;;;;;;;;5066928;28;20028;-67
2023/10/27 04:54:08;;;;;;;60.30;56.55;;;;;;;;;;5066086;28;20035;-67
2023/10/27 04:56:33;;;;;;;58.47;55.47;;;;;;;;;;5066683;28;20976;-68
2023/10/27 04:58:58;;;;;;;50.40;47.85;;;;;;;;;;5067828;28;20048;-68
2023/10/27 05:01:25;;;;;;;48.42;45.97;;;;;;;;;;5065696;28;20052;-67
2023/10/27 05:03:53;;;;;;;37.35;35.25;;;;;;;;;;5065026;28;20036;-68
2023/10/27 05:06:19;;;;;;;36.08;34.20;;;;;;;;;;5067129;28;20043;-68
2023/10/27 05:08:45;;;;;;;38.03;35.92;;;;;;;;;;5064134;28;20032;-67
2023/10/27 05:11:11;;;;;;;34.90;33.03;;;;;;;;;;5064486;28;20028;-70
2023/10/27 05:13:36;;;;;;;30.67;29.08;;;;;;;;;;5065975;28;20028;-68
2023/10/27 05:16:03;;;;;;;31.15;29.48;;;;;;;;;;5069926;28;20032;-67
2023/10/27 05:18:28;;;;;;;29.05;27.52;;;;;;;;;;5065670;28;20025;-68
2023/10/27 05:20:54;;;;;;;31.67;29.88;;;;;;;;;;5066287;28;20524;-68
2023/10/27 05:23:19;;;;;;;33.47;31.67;;;;;;;;;;5069525;28;20055;-68
2023/10/27 05:25:45;;;;;;;33.75;31.95;;;;;;;;;;5060860;28;20029;-68
2023/10/27 05:28:10;;;;;;;37.47;35.28;;;;;;;;;;5065258;28;20515;-68
2023/10/27 05:30:36;;;;;;;34.58;32.47;;;;;;;;;;5063520;28;20104;-68
2023/10/27 05:33:02;;;;;;;32.85;31.05;;;;;;;;;;5066394;28;21503;-68
2023/10/27 05:35:27;;;;;;;31.63;29.98;;;;;;;;;;5065123;28;20094;-69
2023/10/27 05:37:52;;;;;;;33.30;31.40;;;;;;;;;;5061414;28;20028;-69
2023/10/27 05:40:18;;;;;;;32.47;30.25;;;;;;;;;;5070310;28;20044;-69
2023/10/27 05:42:43;;;;;;;31.00;29.15;;;;;;;;;;5062237;28;20366;-69
2023/10/27 05:45:11;;;;;;;29.75;28.15;;;;;;;;;;5045447;28;21649;-69
2023/10/27 05:47:38;;;;;;;29.40;27.80;;;;;;;;;;5060434;28;20521;-69
2023/10/27 05:50:08;;;;;;;46.90;44.20;;;;;;;;;;5065859;28;20458;-66
2023/10/27 05:52:34;;;;;;;35.22;33.22;;;;;;;;;;5064321;28;20031;-66
2023/10/27 05:54:59;;;;;;;38.13;36.13;;;;;;;;;;5060382;28;20037;-65
2023/10/27 05:57:25;;;;;;;41.97;39.55;;;;;;;;;;5066637;28;20069;-66
2023/10/27 05:59:50;;;;;;;47.70;45.25;;;;;;;;;;5065433;28;20354;-66
2023/10/27 06:02:16;;;;;;;32.80;31.05;;;;;;;;;;5067104;28;20604;-67
2023/10/27 06:04:41;;;;;;;33.80;31.98;;;;;;;;;;5062718;28;20043;-67
2023/10/27 06:07:06;;;;;;;36.33;34.38;;;;;;;;;;5064187;28;20025;-66
2023/10/27 06:09:32;;;;;;;35.80;33.90;;;;;;;;;;5064898;28;20625;-66
2023/10/27 06:11:57;;;;;;;34.90;33.08;;;;;;;;;;5065933;28;20453;-65
2023/10/27 06:14:23;;;;;;;34.00;32.20;;;;;;;;;;5065150;28;20152;-66
2023/10/27 06:16:48;;;;;;;34.72;32.80;;;;;;;;;;5064988;28;20477;-65
2023/10/27 06:19:14;;;;;;;37.75;35.72;;;;;;;;;;5063900;28;20631;-64
2023/10/27 06:21:39;;;;;;;37.58;35.60;;;;;;;;;;5062620;28;20043;-65
2023/10/27 06:24:07;;;;;;;39.75;37.63;;;;;;;;;;5064066;28;20041;-65
2023/10/27 06:26:32;;;;;;;42.75;40.50;;;;;;;;;;5063714;28;20204;-64
2023/10/27 06:28:58;;;;;;;47.10;44.55;;;;;;;;;;5062651;28;20116;-65
2023/10/27 06:31:23;;;;;;;43.85;41.53;;;;;;;;;;5062729;28;20519;-65
2023/10/27 06:33:48;;;;;;;43.83;41.55;;;;;;;;;;5062833;28;20481;-64
2023/10/27 06:36:14;;;;;;;42.78;40.50;;;;;;;;;;5064469;28;20050;-64
2023/10/27 06:38:39;;;;;;;41.28;39.13;;;;;;;;;;5063185;28;20497;-65
2023/10/27 06:41:04;;;;;;;32.28;30.52;;;;;;;;;;5061027;28;20047;-65
2023/10/27 06:43:30;;;;;;;30.70;28.98;;;;;;;;;;5061580;28;21184;-65
2023/10/27 06:45:55;;;;;;;30.70;29.10;;;;;;;;;;5062745;28;20366;-66
2023/10/27 06:48:21;;;;;;;31.75;29.85;;;;;;;;;;5064271;28;20083;-66
2023/10/27 06:50:46;;;;;;;27.55;26.08;;;;;;;;;;5067047;28;20165;-66
2023/10/27 06:53:12;;;;;;;27.98;26.42;;;;;;;;;;5063789;28;20028;-65
2023/10/27 06:55:37;;;;;;;28.08;26.55;;;;;;;;;;5065342;28;20039;-65
2023/10/27 06:58:04;;;;;;;27.85;26.35;;;;;;;;;;5069610;28;20116;-65
2023/10/27 07:00:33;;;;;;;26.58;25.17;;;;;;;;;;5065917;28;20415;-64
2023/10/27 07:02:58;;;;;;;28.40;26.80;;;;;;;;;;5063419;28;20020;-64
2023/10/27 07:05:24;;;;;;;27.23;25.73;;;;;;;;;;5065096;28;20028;-64
2023/10/27 07:07:50;;;;;;;29.08;27.45;;;;;;;;;;5061298;28;20082;-64
2023/10/27 07:10:16;;;;;;;27.40;25.95;;;;;;;;;;5062915;28;20060;-64
2023/10/27 07:12:43;;;;;;;29.52;27.92;;;;;;;;;;5062736;28;20033;-64
2023/10/27 07:15:09;;;;;;;28.13;26.60;;;;;;;;;;5063405;28;20063;-64
2023/10/27 07:17:35;;;;;;;28.20;26.73;;;;;;;;;;5065872;28;20053;-65
2023/10/27 07:20:00;;;;;;;33.22;31.50;;;;;;;;;;5064618;28;20067;-64
2023/10/27 07:22:25;;;;;;;32.17;30.27;;;;;;;;;;5065536;28;20036;-64
2023/10/27 07:24:51;;;;;;;29.88;28.27;;;;;;;;;;5066673;28;20104;-64
2023/10/27 07:27:16;;;;;;;29.88;28.33;;;;;;;;;;5068469;28;20450;-65
2023/10/27 07:29:42;;;;;;;33.78;32.03;;;;;;;;;;5071643;28;20073;-64
2023/10/27 07:32:07;;;;;;;36.95;34.38;;;;;;;;;;5066688;28;20031;-64
2023/10/27 07:34:33;;;;;;;38.22;36.28;;;;;;;;;;5063574;28;20086;-64
2023/10/27 07:36:58;;;;;;;40.45;38.33;;;;;;;;;;5069494;28;20045;-64
2023/10/27 07:39:24;;;;;;;43.30;41.03;;;;;;;;;;5070600;28;20074;-64
2023/10/27 07:41:52;;;;;;;45.10;42.78;;;;;;;;;;5067977;28;20040;-64
2023/10/27 07:44:18;;;;;;;43.35;40.97;;;;;;;;;;5067477;28;20052;-64
2023/10/27 07:46:43;;;;;;;42.72;40.58;;;;;;;;;;5070055;28;20066;-64
2023/10/27 07:49:09;;;;;;;41.83;39.70;;;;;;;;;;5072450;28;20036;-64
2023/10/27 07:51:34;;;;;;;45.47;43.08;;;;;;;;;;5067482;28;20032;-64
2023/10/27 07:54:00;;;;;;;49.05;46.55;;;;;;;;;;5068993;28;20028;-63
2023/10/27 07:56:25;;;;;;;45.75;43.42;;;;;;;;;;5068183;28;20095;-63
2023/10/27 07:58:51;;;;;;;54.90;51.45;;;;;;;;;;5067409;28;20059;-63
2023/10/27 08:01:17;;;;;;;66.82;63.38;;;;;;;;;;5068936;28;20036;-63
2023/10/27 08:03:42;;;;;;;75.93;72.15;;;;;;;;;;5066439;28;20083;-63
2023/10/27 08:06:08;;;;;;;81.60;77.55;;;;;;;;;;5066453;28;20525;-63
2023/10/27 08:08:35;;;;;;;71.97;68.35;;;;;;;;;;5066818;28;20521;-64
2023/10/27 08:11:00;;;;;;;76.57;72.78;;;;;;;;;;5066436;28;20469;-63
2023/10/27 08:13:26;;;;;;;81.88;77.82;;;;;;;;;;5067290;28;20075;-63
2023/10/27 08:15:53;;;;;;;82.82;78.70;;;;;;;;;;5066096;28;20116;-63
2023/10/27 08:18:18;;;;;;;76.50;72.65;;;;;;;;;;5067252;28;20374;-63
2023/10/27 08:20:44;;;;;;;67.07;63.70;;;;;;;;;;5070795;28;20027;-63
2023/10/27 08:23:09;;;;;;;82.60;78.47;;;;;;;;;;5064487;28;20610;-63
2023/10/27 08:25:36;;;;;;;82.95;78.85;;;;;;;;;;5068559;28;20511;-63
2023/10/27 08:28:03;;;;;;;63.08;59.88;;;;;;;;;;5065287;28;20367;-63
2023/10/27 08:30:28;;;;;;;74.50;70.78;;;;;;;;;;5067863;28;20040;-63
2023/10/27 08:32:53;;;;;;;79.82;75.82;;;;;;;;;;5069603;28;20079;-63
2023/10/27 08:35:18;;;;;;;70.57;67.03;;;;;;;;;;5070543;28;20032;-64
2023/10/27 08:37:44;;;;;;;81.15;77.10;;;;;;;;;;5065492;28;20067;-64
2023/10/27 08:40:11;;;;;;;86.90;82.50;;;;;;;;;;5066939;28;20047;-63
2023/10/27 08:42:38;;;;;;;68.40;65.00;;;;;;;;;;5065679;28;20039;-63
2023/10/27 08:45:04;;;;;;;78.88;74.95;;;;;;;;;;5067794;28;20093;-63
2023/10/27 08:47:31;;;;;;;71.80;68.20;;;;;;;;;;5064672;28;20480;-63
2023/10/27 08:49:59;;;;;;;57.63;54.72;;;;;;;;;;5066200;28;20036;-63
2023/10/27 08:52:25;;;;;;;48.70;46.20;;;;;;;;;;5067613;28;20025;-63
2023/10/27 08:54:51;;;;;;;58.53;55.33;;;;;;;;;;5066486;28;20054;-63
2023/10/27 08:57:16;;;;;;;56.33;53.47;;;;;;;;;;5065618;28;20059;-65
2023/10/27 08:59:43;;;;;;;52.58;49.88;;;;;;;;;;5068155;28;20123;-64
2023/10/27 09:02:09;;;;;;;57.60;54.58;;;;;;;;;;5066822;28;20091;-64
2023/10/27 09:04:42;;;;;;;86.78;82.40;;;;;;;;;;5068206;28;20425;-64
2023/10/27 09:07:07;;;;;;;74.85;71.10;;;;;;;;;;5064400;28;20116;-63
2023/10/27 09:09:33;;;;;;;51.75;49.10;;;;;;;;;;5064828;28;20529;-63
2023/10/27 09:11:59;;;;;;;46.50;44.10;;;;;;;;;;5070992;28;20366;-63
2023/10/27 09:14:32;;;;;;;42.55;40.35;;;;;;;;;;5065502;28;20101;-63
2023/10/27 09:17:04;;;;;;;33.05;31.35;;;;;;;;;;5067230;28;20036;-63
2023/10/27 09:19:29;;;;;;;30.00;28.42;;;;;;;;;;5066219;28;20341;-63
2023/10/27 09:21:55;;;;;;;35.25;33.45;;;;;;;;;;5065678;28;20110;-63
2023/10/27 09:24:21;;;;;;;29.55;27.95;;;;;;;;;;5066135;28;20109;-62
2023/10/27 09:26:47;;;;;;;53.22;50.53;;;;;;;;;;5064774;28;20039;-63
2023/10/27 09:29:12;;;;;;;48.47;46.03;;;;;;;;;;5068200;28;20115;-63
2023/10/27 09:31:38;;;;;;;50.78;48.20;;;;;;;;;;5069484;28;20039;-63
2023/10/27 09:34:17;;;;;;;61.95;58.83;;;;;;;;;;5064395;28;20025;-63
2023/10/27 09:36:50;;;;;;;36.00;34.13;;;;;;;;;;5069327;28;20024;-63
2023/10/27 09:39:18;;;;;;;40.00;38.00;;;;;;;;;;5061665;28;20036;-63
2023/10/27 09:41:48;;;;;;;35.92;34.03;;;;;;;;;;5067273;28;20417;-63
2023/10/27 09:44:15;;;;;;;45.55;43.08;;;;;;;;;;5065132;28;20117;-62
2023/10/27 09:46:50;;;;;;;39.42;37.40;;;;;;;;;;5067755;28;20033;-63
2023/10/27 09:49:25;;;;;;;40.45;38.38;;;;;;;;;;5063520;28;20053;-63
2023/10/27 09:51:58;;;;;;;45.83;43.53;;;;;;;;;;5066327;28;20043;-64
2023/10/27 09:54:26;;;;;;;35.80;33.95;;;;;;;;;;5067373;28;20048;-63
2023/10/27 09:56:53;;;;;;;35.13;33.33;;;;;;;;;;5063774;28;20064;-64
2023/10/27 09:59:18;;;;;;;35.65;33.85;;;;;;;;;;5063427;28;20036;-64
2023/10/27 10:01:44;;;;;;;42.15;40.03;;;;;;;;;;5067649;28;20458;-64
2023/10/27 10:04:10;;;;;;;44.08;41.83;;;;;;;;;;5064648;28;20040;-64
2023/10/27 10:06:35;;;;;;;40.63;38.53;;;;;;;;;;5065004;28;20028;-63
2023/10/27 10:09:14;;;;;;;43.22;40.95;;;;;;;;;;5063701;28;20035;-63
2023/10/27 10:11:53;;;;;;;42.75;40.33;;;;;;;;;;5067716;28;20054;-64
2023/10/27 10:14:36;;;;;;;37.38;35.47;;;;;;;;;;5063551;28;20032;-63
2023/10/27 10:17:03;;;;;;;37.38;35.47;;;;;;;;;;5067962;28;20040;-63
2023/10/27 10:19:48;;;;;;;32.33;30.63;;;;;;;;;;5066319;28;20040;-63
2023/10/27 10:22:42;;;;;;;35.03;33.22;;;;;;;;;;5062404;28;20461;-64
2023/10/27 10:25:19;;;;;;;32.78;31.08;;;;;;;;;;5062128;28;20165;-64
2023/10/27 10:28:06;;;;;;;32.10;30.42;;;;;;;;;;5065905;28;20038;-65
2023/10/27 10:30:32;;;;;;;32.42;30.73;;;;;;;;;;5065514;28;20039;-64
2023/10/27 10:33:19;;;;;;;31.00;29.40;;;;;;;;;;5065474;28;20508;-64
2023/10/27 10:35:46;;;;;;;34.45;32.65;;;;;;;;;;5065709;28;20035;-65
2023/10/27 10:38:24;;;;;;;46.60;44.25;;;;;;;;;;5063282;28;20351;-64
2023/10/27 10:41:05;;;;;;;46.70;44.30;;;;;;;;;;5063178;28;20028;-64
2023/10/27 10:43:36;;;;;;;44.78;42.50;;;;;;;;;;5066310;28;20620;-64
2023/10/27 10:46:03;;;;;;;38.80;36.80;;;;;;;;;;5062630;28;20029;-64
2023/10/27 10:48:34;;;;;;;36.75;34.75;;;;;;;;;;5064392;28;20031;-64
2023/10/27 10:53:55;;;;;;;30.52;28.92;;;;;;;;;;5062938;28;20037;-65
2023/10/27 10:56:21;;;;;;;35.22;33.42;;;;;;;;;;5064062;28;20076;-64
2023/10/27 10:58:46;;;;;;;38.17;36.20;;;;;;;;;;5065825;28;20048;-65
2023/10/27 11:01:17;;;;;;;34.08;32.30;;;;;;;;;;5060002;28;20041;-64
2023/10/27 11:03:53;;;;;;;38.22;36.22;;;;;;;;;;5049196;28;20410;-65
2023/10/27 11:06:23;;;;;;;34.42;32.63;;;;;;;;;;5060441;28;20542;-64
2023/10/27 11:08:49;;;;;;;32.58;30.88;;;;;;;;;;5061488;28;20040;-66
2023/10/27 11:11:18;;;;;;;31.45;29.85;;;;;;;;;;5064092;28;20343;-65
2023/10/27 11:13:52;;;;;;;31.45;29.85;;;;;;;;;;5061478;28;20036;-65
2023/10/27 11:16:21;;;;;;;34.28;32.50;;;;;;;;;;5066607;28;20040;-66
2023/10/27 11:18:49;;;;;;;32.05;30.38;;;;;;;;;;5064927;28;20740;-66
2023/10/27 11:21:22;;;;;;;31.17;29.58;;;;;;;;;;5063420;28;20170;-67
2023/10/27 11:23:48;;;;;;;31.90;30.23;;;;;;;;;;5066667;28;20239;-68
2023/10/27 11:26:16;;;;;;;33.10;31.40;;;;;;;;;;5063901;28;20047;-67
2023/10/27 11:28:43;;;;;;;33.25;31.55;;;;;;;;;;5063298;28;20466;-65
2023/10/27 11:31:15;;;;;;;32.42;30.73;;;;;;;;;;5063258;28;20029;-67
2023/10/27 11:33:56;;;;;;;33.90;32.15;;;;;;;;;;5061258;28;20028;-69
2023/10/27 11:36:22;;;;;;;34.42;32.63;;;;;;;;;;5063180;28;20075;-68
2023/10/27 11:38:48;;;;;;;37.30;35.20;;;;;;;;;;5063877;28;20064;-66
2023/10/27 11:41:13;;;;;;;37.05;35.15;;;;;;;;;;5062384;28;20062;-66
2023/10/27 11:43:42;;;;;;;30.92;29.33;;;;;;;;;;5066358;28;20029;-66
2023/10/27 11:46:18;;;;;;;34.85;32.85;;;;;;;;;;5066363;28;20029;-66
2023/10/27 11:48:45;;;;;;;36.80;34.70;;;;;;;;;;5067764;28;20508;-66
2023/10/27 11:51:11;;;;;;;35.13;33.22;;;;;;;;;;5066037;28;20036;-66
2023/10/27 11:53:44;;;;;;;39.55;37.55;;;;;;;;;;5064114;28;20055;-65
2023/10/27 11:56:11;;;;;;;35.15;32.90;;;;;;;;;;5060383;28;20124;-66
2023/10/27 11:58:37;;;;;;;51.97;49.35;;;;;;;;;;5061230;28;20040;-66
2023/10/27 12:01:02;;;;;;;47.78;45.35;;;;;;;;;;5063678;28;20029;-67
2023/10/27 12:03:28;;;;;;;62.30;59.10;;;;;;;;;;5060178;28;20059;-67
2023/10/27 12:05:53;;;;;;;62.42;59.30;;;;;;;;;;5067358;28;20592;-65
2023/10/27 12:08:19;;;;;;;61.50;58.35;;;;;;;;;;5066520;28;20128;-65
2023/10/27 12:10:45;;;;;;;58.90;55.92;;;;;;;;;;5066816;28;20043;-65
2023/10/27 12:13:10;;;;;;;47.63;45.22;;;;;;;;;;5065292;28;20031;-65
2023/10/27 12:15:36;;;;;;;57.05;54.20;;;;;;;;;;5065257;28;20028;-66
2023/10/27 12:18:06;;;;;;;55.45;52.67;;;;;;;;;;5069997;28;20032;-65
2023/10/27 12:20:32;;;;;;;56.45;53.58;;;;;;;;;;5068951;28;20032;-65
2023/10/27 12:22:57;;;;;;;56.33;53.50;;;;;;;;;;5066948;28;20050;-65
2023/10/27 12:25:23;;;;;;;59.25;56.28;;;;;;;;;;5064028;28;20024;-65
2023/10/27 12:27:48;;;;;;;61.22;58.13;;;;;;;;;;5063885;28;20518;-66
2023/10/27 12:30:15;;;;;;;64.97;61.75;;;;;;;;;;5066085;28;20036;-65
2023/10/27 12:32:42;;;;;;;49.33;46.83;;;;;;;;;;5069250;28;20032;-66
2023/10/27 12:35:08;;;;;;;39.80;37.80;;;;;;;;;;5065296;28;20135;-66
2023/10/27 12:37:34;;;;;;;43.25;41.05;;;;;;;;;;5058824;28;20041;-66
2023/10/27 12:39:59;;;;;;;54.58;51.65;;;;;;;;;;5066433;28;20037;-65
2023/10/27 12:42:24;;;;;;;59.30;56.33;;;;;;;;;;5066096;28;20033;-65
2023/10/27 12:44:50;;;;;;;53.75;50.90;;;;;;;;;;5064736;28;20075;-65
2023/10/27 12:47:16;;;;;;;44.50;42.22;;;;;;;;;;5062865;28;20048;-65
2023/10/27 12:49:42;;;;;;;33.60;31.90;;;;;;;;;;5068281;28;20451;-66
2023/10/27 12:52:07;;;;;;;34.40;32.60;;;;;;;;;;5067189;28;20029;-65
2023/10/27 12:54:36;;;;;;;38.13;35.85;;;;;;;;;;5065891;28;20343;-65
2023/10/27 12:57:02;;;;;;;37.42;35.42;;;;;;;;;;5065138;28;20044;-65
2023/10/27 12:59:27;;;;;;;29.27;27.77;;;;;;;;;;5068626;28;20085;-65
2023/10/27 13:01:53;;;;;;;28.45;26.85;;;;;;;;;;5065239;28;20035;-65
2023/10/27 13:04:18;;;;;;;29.55;28.05;;;;;;;;;;5065187;28;20067;-66
2023/10/27 13:06:44;;;;;;;31.83;30.10;;;;;;;;;;5064601;28;20029;-65
2023/10/27 13:09:11;;;;;;;29.00;27.42;;;;;;;;;;5063862;28;20530;-65
2023/10/27 13:11:36;;;;;;;29.85;28.20;;;;;;;;;;5065844;28;20055;-65
2023/10/27 13:14:03;;;;;;;33.13;31.42;;;;;;;;;;5064872;28;21194;-65
2023/10/27 13:16:28;;;;;;;33.25;31.52;;;;;;;;;;5066744;28;20060;-65
2023/10/27 13:18:54;;;;;;;35.00;33.20;;;;;;;;;;5065855;28;21200;-65
2023/10/27 13:21:19;;;;;;;35.63;33.78;;;;;;;;;;5068809;28;20028;-66
2023/10/27 13:23:45;;;;;;;38.45;36.47;;;;;;;;;;5065121;28;20413;-65
2023/10/27 13:26:10;;;;;;;39.00;36.90;;;;;;;;;;5061373;28;20036;-66
2023/10/27 13:28:36;;;;;;;30.33;28.73;;;;;;;;;;5064528;28;20036;-66
2023/10/27 13:31:01;;;;;;;31.17;29.58;;;;;;;;;;5063753;28;20032;-66
2023/10/27 13:33:27;;;;;;;30.08;28.48;;;;;;;;;;5066752;28;20020;-67
2023/10/27 13:36:04;;;;;;;29.48;27.95;;;;;;;;;;5063283;28;20437;-68
2023/10/27 13:38:29;;;;;;;33.17;31.27;;;;;;;;;;5066497;28;20037;-66
2023/10/27 13:40:55;;;;;;;30.35;28.70;;;;;;;;;;5063674;28;20032;-66
2023/10/27 13:43:21;;;;;;;35.13;33.33;;;;;;;;;;5064263;28;20033;-65
2023/10/27 13:45:47;;;;;;;32.38;30.67;;;;;;;;;;5066218;28;20490;-65
2023/10/27 13:48:13;;;;;;;37.75;35.75;;;;;;;;;;5062493;28;20042;-66
2023/10/27 13:50:38;;;;;;;43.70;41.50;;;;;;;;;;5063935;28;20789;-65
2023/10/27 13:53:04;;;;;;;43.22;41.03;;;;;;;;;;5063245;28;20038;-65
2023/10/27 13:55:29;;;;;;;35.38;33.47;;;;;;;;;;5064165;28;20032;-66
2023/10/27 13:57:55;;;;;;;41.13;39.03;;;;;;;;;;5064458;28;20043;-67
2023/10/27 14:00:26;;;;;;;41.60;39.50;;;;;;;;;;5063806;28;20029;-67
2023/10/27 14:02:52;;;;;;;;;;;;;;;;;;5064095;28;20121;-65
2023/10/27 14:05:17;;;;;;;39.28;37.28;;;;;;;;;;5058806;28;19980;-65
2023/10/27 14:07:43;;;;;;;40.13;38.13;;;;;;;;;;5063499;28;20036;-65
2023/10/27 14:10:09;;;;;;;45.35;42.97;;;;;;;;;;5062044;28;20024;-64
2023/10/27 14:12:34;;;;;;;44.33;41.92;;;;;;;;;;5064249;28;20028;-65
2023/10/27 14:15:00;;;;;;;55.00;52.25;;;;;;;;;;5065647;28;20048;-65
2023/10/27 14:17:25;;;;;;;48.95;46.45;;;;;;;;;;5063311;28;20526;-64
2023/10/27 14:19:51;;;;;;;49.80;47.28;;;;;;;;;;5063413;28;20091;-65